Ceylon, Minnesota
Current Conditions -  °F | °C
As of 8:52 AM on Thursday 23 Oct 2014 (Local Time) from KEST Reporting Station
Moderate Fog Moderate Fog  
Wind Chill: 47°   Ceiling: 200
Heat Index: 49°   Visibility: 0.25mi
Dew Point: 49°   Wind: 6mph
Humidity: 100%   Direction: 280°W
Pressure: 30.03"   Gusts: NA
Location:  43.53°N, 94.63°W
Report Text: KEST 231352Z AUTO 28005KT 1/4SM FG VV002 09/09 A3003 RMK AO2 SLP170 T00940094
Loading
Personal Weather Stations






























Interactive Weather Map
Tropical Storm Tracking
New forecast layout! Learn more

10-Day Weather Forecast

Advertisements
Track Severe Weather on mobile